sensor_id;sensor_type;location;lat;lon;timestamp;temperature;humidity
12006;DHT22;6062;47.294;12.182;2022-08-19T00:01:51;15.10;59.90
12006;DHT22;6062;47.294;12.182;2022-08-19T00:04:25;15.10;60.00
12006;DHT22;6062;47.294;12.182;2022-08-19T00:06:54;15.10;60.00
12006;DHT22;6062;47.294;12.182;2022-08-19T00:09:22;15.20;60.00
12006;DHT22;6062;47.294;12.182;2022-08-19T00:11:49;15.20;60.00
12006;DHT22;6062;47.294;12.182;2022-08-19T00:14:16;15.20;60.00
12006;DHT22;6062;47.294;12.182;2022-08-19T00:16:44;15.20;60.00
12006;DHT22;6062;47.294;12.182;2022-08-19T00:19:11;15.20;59.90
12006;DHT22;6062;47.294;12.182;2022-08-19T00:21:37;15.20;59.80
12006;DHT22;6062;47.294;12.182;2022-08-19T00:24:05;15.20;59.60
12006;DHT22;6062;47.294;12.182;2022-08-19T00:26:33;15.20;59.30
12006;DHT22;6062;47.294;12.182;2022-08-19T00:28:59;15.30;59.20
12006;DHT22;6062;47.294;12.182;2022-08-19T00:31:26;15.30;59.00
12006;DHT22;6062;47.294;12.182;2022-08-19T00:33:53;15.40;59.10
12006;DHT22;6062;47.294;12.182;2022-08-19T00:36:20;15.40;59.00
12006;DHT22;6062;47.294;12.182;2022-08-19T00:38:46;15.40;58.90
12006;DHT22;6062;47.294;12.182;2022-08-19T00:41:17;15.40;58.90
12006;DHT22;6062;47.294;12.182;2022-08-19T00:43:58;15.50;59.00
12006;DHT22;6062;47.294;12.182;2022-08-19T00:46:26;15.50;58.80
12006;DHT22;6062;47.294;12.182;2022-08-19T00:48:54;15.50;58.90
12006;DHT22;6062;47.294;12.182;2022-08-19T00:51:20;15.50;58.90
12006;DHT22;6062;47.294;12.182;2022-08-19T00:53:47;15.50;59.00
12006;DHT22;6062;47.294;12.182;2022-08-19T00:56:13;15.50;58.90
12006;DHT22;6062;47.294;12.182;2022-08-19T00:58:39;15.50;59.00
12006;DHT22;6062;47.294;12.182;2022-08-19T01:01:05;15.50;59.20
12006;DHT22;6062;47.294;12.182;2022-08-19T01:03:33;15.50;59.20
12006;DHT22;6062;47.294;12.182;2022-08-19T01:05:58;15.50;59.20
12006;DHT22;6062;47.294;12.182;2022-08-19T01:08:25;15.40;59.10
12006;DHT22;6062;47.294;12.182;2022-08-19T01:10:56;15.40;59.70
12006;DHT22;6062;47.294;12.182;2022-08-19T01:13:27;15.40;60.10
12006;DHT22;6062;47.294;12.182;2022-08-19T01:15:59;15.30;60.20
12006;DHT22;6062;47.294;12.182;2022-08-19T01:18:29;15.30;60.30
12006;DHT22;6062;47.294;12.182;2022-08-19T01:21:00;15.30;60.40
12006;DHT22;6062;47.294;12.182;2022-08-19T01:23:30;15.20;60.40
12006;DHT22;6062;47.294;12.182;2022-08-19T01:26:20;15.30;60.50
12006;DHT22;6062;47.294;12.182;2022-08-19T01:28:52;15.20;60.40
12006;DHT22;6062;47.294;12.182;2022-08-19T01:31:23;15.20;60.40
12006;DHT22;6062;47.294;12.182;2022-08-19T01:33:52;15.20;60.70
12006;DHT22;6062;47.294;12.182;2022-08-19T01:38:52;15.20;60.90
12006;DHT22;6062;47.294;12.182;2022-08-19T01:41:18;15.20;60.70
12006;DHT22;6062;47.294;12.182;2022-08-19T01:43:44;15.20;60.60
12006;DHT22;6062;47.294;12.182;2022-08-19T01:46:11;15.20;60.80
12006;DHT22;6062;47.294;12.182;2022-08-19T01:48:41;15.20;60.80
12006;DHT22;6062;47.294;12.182;2022-08-19T01:51:10;15.20;60.70
12006;DHT22;6062;47.294;12.182;2022-08-19T01:53:37;15.30;60.70
12006;DHT22;6062;47.294;12.182;2022-08-19T01:56:04;15.30;60.90
12006;DHT22;6062;47.294;12.182;2022-08-19T01:58:38;15.30;61.80
12006;DHT22;6062;47.294;12.182;2022-08-19T02:01:11;15.30;61.40
12006;DHT22;6062;47.294;12.182;2022-08-19T02:03:38;15.30;61.20
12006;DHT22;6062;47.294;12.182;2022-08-19T02:06:03;15.30;61.30
12006;DHT22;6062;47.294;12.182;2022-08-19T02:08:32;15.30;61.40
12006;DHT22;6062;47.294;12.182;2022-08-19T02:11:00;15.30;61.80
12006;DHT22;6062;47.294;12.182;2022-08-19T02:13:26;15.30;61.90
12006;DHT22;6062;47.294;12.182;2022-08-19T02:15:52;15.30;62.20
12006;DHT22;6062;47.294;12.182;2022-08-19T02:18:18;15.30;62.30
12006;DHT22;6062;47.294;12.182;2022-08-19T02:20:44;15.30;63.30
12006;DHT22;6062;47.294;12.182;2022-08-19T02:23:12;15.30;62.80
12006;DHT22;6062;47.294;12.182;2022-08-19T02:25:38;15.30;63.10
12006;DHT22;6062;47.294;12.182;2022-08-19T02:28:04;15.30;63.60
12006;DHT22;6062;47.294;12.182;2022-08-19T02:30:31;15.20;64.40
12006;DHT22;6062;47.294;12.182;2022-08-19T02:32:56;15.10;64.70
12006;DHT22;6062;47.294;12.182;2022-08-19T02:35:23;15.00;64.80
12006;DHT22;6062;47.294;12.182;2022-08-19T02:37:49;14.90;65.10
12006;DHT22;6062;47.294;12.182;2022-08-19T02:40:34;14.80;65.60
12006;DHT22;6062;47.294;12.182;2022-08-19T02:43:05;14.80;65.90
12006;DHT22;6062;47.294;12.182;2022-08-19T02:45:38;14.70;66.00
12006;DHT22;6062;47.294;12.182;2022-08-19T02:48:07;14.60;66.30
12006;DHT22;6062;47.294;12.182;2022-08-19T02:50:37;14.60;66.10
12006;DHT22;6062;47.294;12.182;2022-08-19T02:53:04;14.60;66.40
12006;DHT22;6062;47.294;12.182;2022-08-19T02:55:32;14.60;66.30
12006;DHT22;6062;47.294;12.182;2022-08-19T02:57:59;14.60;66.30
12006;DHT22;6062;47.294;12.182;2022-08-19T03:00:25;14.60;66.20
12006;DHT22;6062;47.294;12.182;2022-08-19T03:02:52;14.60;66.20
12006;DHT22;6062;47.294;12.182;2022-08-19T03:05:18;14.70;66.40
12006;DHT22;6062;47.294;12.182;2022-08-19T03:07:44;14.70;66.40
12006;DHT22;6062;47.294;12.182;2022-08-19T03:10:11;14.70;66.30
12006;DHT22;6062;47.294;12.182;2022-08-19T03:12:38;14.70;66.40
12006;DHT22;6062;47.294;12.182;2022-08-19T03:15:06;14.70;66.40
12006;DHT22;6062;47.294;12.182;2022-08-19T03:17:34;14.70;66.50
12006;DHT22;6062;47.294;12.182;2022-08-19T03:20:00;14.70;66.50
12006;DHT22;6062;47.294;12.182;2022-08-19T03:22:26;14.70;66.50
12006;DHT22;6062;47.294;12.182;2022-08-19T03:24:52;14.80;66.70
12006;DHT22;6062;47.294;12.182;2022-08-19T03:27:19;14.70;66.70
12006;DHT22;6062;47.294;12.182;2022-08-19T03:29:44;14.80;66.80
12006;DHT22;6062;47.294;12.182;2022-08-19T03:32:11;14.80;66.90
12006;DHT22;6062;47.294;12.182;2022-08-19T03:34:37;14.70;66.90
12006;DHT22;6062;47.294;12.182;2022-08-19T03:37:09;14.70;66.80
12006;DHT22;6062;47.294;12.182;2022-08-19T03:39:40;14.80;67.20
12006;DHT22;6062;47.294;12.182;2022-08-19T03:42:07;14.70;67.00
12006;DHT22;6062;47.294;12.182;2022-08-19T03:44:34;14.80;67.20
12006;DHT22;6062;47.294;12.182;2022-08-19T03:47:01;14.80;67.20
12006;DHT22;6062;47.294;12.182;2022-08-19T03:49:29;14.70;67.20
12006;DHT22;6062;47.294;12.182;2022-08-19T03:51:57;14.70;67.60
12006;DHT22;6062;47.294;12.182;2022-08-19T03:54:26;14.70;67.40
12006;DHT22;6062;47.294;12.182;2022-08-19T03:56:54;14.70;67.50
12006;DHT22;6062;47.294;12.182;2022-08-19T03:59:28;14.70;67.70
12006;DHT22;6062;47.294;12.182;2022-08-19T04:01:58;14.70;68.10
12006;DHT22;6062;47.294;12.182;2022-08-19T04:04:26;14.70;68.20
12006;DHT22;6062;47.294;12.182;2022-08-19T04:06:52;14.70;68.20
12006;DHT22;6062;47.294;12.182;2022-08-19T04:09:19;14.70;68.30
12006;DHT22;6062;47.294;12.182;2022-08-19T04:11:48;14.70;68.50
12006;DHT22;6062;47.294;12.182;2022-08-19T04:14:18;14.60;68.70
12006;DHT22;6062;47.294;12.182;2022-08-19T04:16:47;14.60;68.80
12006;DHT22;6062;47.294;12.182;2022-08-19T04:19:14;14.60;68.80
12006;DHT22;6062;47.294;12.182;2022-08-19T04:21:43;14.60;69.00
12006;DHT22;6062;47.294;12.182;2022-08-19T04:24:10;14.60;69.30
12006;DHT22;6062;47.294;12.182;2022-08-19T04:26:37;14.60;69.30
12006;DHT22;6062;47.294;12.182;2022-08-19T04:29:08;14.60;69.40
12006;DHT22;6062;47.294;12.182;2022-08-19T04:31:48;14.60;69.60
12006;DHT22;6062;47.294;12.182;2022-08-19T04:34:17;14.60;69.40
12006;DHT22;6062;47.294;12.182;2022-08-19T04:36:48;14.60;69.70
12006;DHT22;6062;47.294;12.182;2022-08-19T04:39:19;14.70;69.60
12006;DHT22;6062;47.294;12.182;2022-08-19T04:41:47;14.70;69.70
12006;DHT22;6062;47.294;12.182;2022-08-19T04:44:35;14.70;69.60
12006;DHT22;6062;47.294;12.182;2022-08-19T04:47:02;14.70;69.80
12006;DHT22;6062;47.294;12.182;2022-08-19T04:49:30;14.70;69.70
12006;DHT22;6062;47.294;12.182;2022-08-19T04:51:56;14.70;69.60
12006;DHT22;6062;47.294;12.182;2022-08-19T04:54:24;14.70;69.70
12006;DHT22;6062;47.294;12.182;2022-08-19T04:56:52;14.70;69.90
12006;DHT22;6062;47.294;12.182;2022-08-19T04:59:19;14.70;69.90
12006;DHT22;6062;47.294;12.182;2022-08-19T05:01:46;14.80;70.30
12006;DHT22;6062;47.294;12.182;2022-08-19T05:04:18;14.80;70.30
12006;DHT22;6062;47.294;12.182;2022-08-19T05:06:47;14.80;70.40
12006;DHT22;6062;47.294;12.182;2022-08-19T05:09:15;14.80;70.40
12006;DHT22;6062;47.294;12.182;2022-08-19T05:11:41;14.80;70.50
12006;DHT22;6062;47.294;12.182;2022-08-19T05:14:08;14.90;70.70
12006;DHT22;6062;47.294;12.182;2022-08-19T05:16:35;14.80;70.80
12006;DHT22;6062;47.294;12.182;2022-08-19T05:19:01;14.90;70.80
12006;DHT22;6062;47.294;12.182;2022-08-19T05:21:45;14.90;70.80
12006;DHT22;6062;47.294;12.182;2022-08-19T05:24:30;14.80;70.90
12006;DHT22;6062;47.294;12.182;2022-08-19T05:27:00;14.90;71.10
12006;DHT22;6062;47.294;12.182;2022-08-19T05:29:28;14.80;71.20
12006;DHT22;6062;47.294;12.182;2022-08-19T05:31:56;14.80;71.50
12006;DHT22;6062;47.294;12.182;2022-08-19T05:34:24;14.70;71.60
12006;DHT22;6062;47.294;12.182;2022-08-19T05:36:56;14.70;72.10
12006;DHT22;6062;47.294;12.182;2022-08-19T05:39:30;14.70;72.30
12006;DHT22;6062;47.294;12.182;2022-08-19T05:42:06;14.70;73.10
12006;DHT22;6062;47.294;12.182;2022-08-19T05:44:36;14.60;72.90
12006;DHT22;6062;47.294;12.182;2022-08-19T05:47:06;14.60;73.00
12006;DHT22;6062;47.294;12.182;2022-08-19T05:49:34;14.60;72.90
12006;DHT22;6062;47.294;12.182;2022-08-19T05:52:04;14.50;72.80
12006;DHT22;6062;47.294;12.182;2022-08-19T05:54:31;14.50;73.10
12006;DHT22;6062;47.294;12.182;2022-08-19T05:56:58;14.50;73.00
12006;DHT22;6062;47.294;12.182;2022-08-19T05:59:25;14.50;73.10
12006;DHT22;6062;47.294;12.182;2022-08-19T06:01:52;14.50;73.30
12006;DHT22;6062;47.294;12.182;2022-08-19T06:04:23;14.50;73.50
12006;DHT22;6062;47.294;12.182;2022-08-19T06:06:51;14.50;73.60
12006;DHT22;6062;47.294;12.182;2022-08-19T06:09:19;14.50;73.80
12006;DHT22;6062;47.294;12.182;2022-08-19T06:11:52;14.50;73.60
12006;DHT22;6062;47.294;12.182;2022-08-19T06:14:24;14.50;73.60
12006;DHT22;6062;47.294;12.182;2022-08-19T06:16:51;14.50;73.40
12006;DHT22;6062;47.294;12.182;2022-08-19T06:19:21;14.50;73.40
12006;DHT22;6062;47.294;12.182;2022-08-19T06:21:50;14.40;73.50
12006;DHT22;6062;47.294;12.182;2022-08-19T06:24:23;14.40;73.90
12006;DHT22;6062;47.294;12.182;2022-08-19T06:26:51;14.50;74.20
12006;DHT22;6062;47.294;12.182;2022-08-19T06:29:21;14.50;74.10
12006;DHT22;6062;47.294;12.182;2022-08-19T06:31:53;14.40;74.00
12006;DHT22;6062;47.294;12.182;2022-08-19T06:34:21;14.40;74.20
12006;DHT22;6062;47.294;12.182;2022-08-19T06:36:49;14.50;74.20
12006;DHT22;6062;47.294;12.182;2022-08-19T06:39:22;14.50;74.40
12006;DHT22;6062;47.294;12.182;2022-08-19T06:41:52;14.50;74.80
12006;DHT22;6062;47.294;12.182;2022-08-19T06:44:22;14.60;75.50
12006;DHT22;6062;47.294;12.182;2022-08-19T06:46:50;14.60;75.50
12006;DHT22;6062;47.294;12.182;2022-08-19T06:49:17;14.70;75.40
12006;DHT22;6062;47.294;12.182;2022-08-19T06:51:46;14.80;75.00
12006;DHT22;6062;47.294;12.182;2022-08-19T06:54:14;14.90;75.10
12006;DHT22;6062;47.294;12.182;2022-08-19T06:56:41;15.00;74.90
12006;DHT22;6062;47.294;12.182;2022-08-19T06:59:14;15.20;74.60
12006;DHT22;6062;47.294;12.182;2022-08-19T07:01:50;15.40;75.00
12006;DHT22;6062;47.294;12.182;2022-08-19T07:04:23;15.50;75.80
12006;DHT22;6062;47.294;12.182;2022-08-19T07:06:58;15.70;74.70
12006;DHT22;6062;47.294;12.182;2022-08-19T07:09:43;15.80;73.90
12006;DHT22;6062;47.294;12.182;2022-08-19T07:12:11;16.00;72.10
12006;DHT22;6062;47.294;12.182;2022-08-19T07:14:41;16.10;70.80
12006;DHT22;6062;47.294;12.182;2022-08-19T07:17:10;16.10;70.10
12006;DHT22;6062;47.294;12.182;2022-08-19T07:19:38;16.10;69.60
12006;DHT22;6062;47.294;12.182;2022-08-19T07:22:06;16.00;69.60
12006;DHT22;6062;47.294;12.182;2022-08-19T07:34:55;16.30;77.30
12006;DHT22;6062;47.294;12.182;2022-08-19T07:37:20;16.70;75.80
12006;DHT22;6062;47.294;12.182;2022-08-19T07:39:46;17.10;74.60
12006;DHT22;6062;47.294;12.182;2022-08-19T07:42:13;17.60;73.10
12006;DHT22;6062;47.294;12.182;2022-08-19T07:44:40;18.00;70.90
12006;DHT22;6062;47.294;12.182;2022-08-19T07:47:06;18.40;67.40
12006;DHT22;6062;47.294;12.182;2022-08-19T07:49:32;18.60;66.10
12006;DHT22;6062;47.294;12.182;2022-08-19T07:52:03;18.70;64.70
12006;DHT22;6062;47.294;12.182;2022-08-19T07:54:34;18.60;64.30
12006;DHT22;6062;47.294;12.182;2022-08-19T07:57:03;18.50;64.20
12006;DHT22;6062;47.294;12.182;2022-08-19T07:59:30;18.30;64.90
12006;DHT22;6062;47.294;12.182;2022-08-19T08:01:57;18.10;64.60
12006;DHT22;6062;47.294;12.182;2022-08-19T08:04:26;18.00;64.70
12006;DHT22;6062;47.294;12.182;2022-08-19T08:07:11;17.80;64.60
12006;DHT22;6062;47.294;12.182;2022-08-19T08:09:55;17.60;64.90
12006;DHT22;6062;47.294;12.182;2022-08-19T08:12:28;17.40;65.40
12006;DHT22;6062;47.294;12.182;2022-08-19T08:15:01;17.20;66.00
12006;DHT22;6062;47.294;12.182;2022-08-19T08:17:33;17.10;66.50
12006;DHT22;6062;47.294;12.182;2022-08-19T08:19:59;17.10;66.70
12006;DHT22;6062;47.294;12.182;2022-08-19T08:22:25;17.00;67.10
12006;DHT22;6062;47.294;12.182;2022-08-19T08:25:16;17.10;68.30
12006;DHT22;6062;47.294;12.182;2022-08-19T08:27:45;17.10;67.80
12006;DHT22;6062;47.294;12.182;2022-08-19T08:30:15;17.10;67.60
12006;DHT22;6062;47.294;12.182;2022-08-19T08:32:43;17.00;67.60
12006;DHT22;6062;47.294;12.182;2022-08-19T08:35:13;16.90;68.50
12006;DHT22;6062;47.294;12.182;2022-08-19T08:37:40;17.00;70.80
12006;DHT22;6062;47.294;12.182;2022-08-19T08:43:34;17.40;72.90
12006;DHT22;6062;47.294;12.182;2022-08-19T08:46:12;17.90;72.50
12006;DHT22;6062;47.294;12.182;2022-08-19T08:48:49;18.40;71.00
12006;DHT22;6062;47.294;12.182;2022-08-19T08:51:35;18.80;69.90
12006;DHT22;6062;47.294;12.182;2022-08-19T08:54:13;19.30;68.30
12006;DHT22;6062;47.294;12.182;2022-08-19T08:56:43;19.80;67.00
12006;DHT22;6062;47.294;12.182;2022-08-19T08:59:24;20.20;66.40
12006;DHT22;6062;47.294;12.182;2022-08-19T09:01:59;20.80;65.00
12006;DHT22;6062;47.294;12.182;2022-08-19T09:04:25;21.30;63.50
12006;DHT22;6062;47.294;12.182;2022-08-19T09:10:38;22.40;59.80
12006;DHT22;6062;47.294;12.182;2022-08-19T09:16:06;23.00;57.20
12006;DHT22;6062;47.294;12.182;2022-08-19T09:18:42;23.30;55.30
12006;DHT22;6062;47.294;12.182;2022-08-19T09:21:21;23.40;54.30
12006;DHT22;6062;47.294;12.182;2022-08-19T09:23:48;23.50;53.60
12006;DHT22;6062;47.294;12.182;2022-08-19T09:26:17;23.40;53.40
12006;DHT22;6062;47.294;12.182;2022-08-19T09:28:46;23.30;53.30
12006;DHT22;6062;47.294;12.182;2022-08-19T09:31:18;23.20;52.50
12006;DHT22;6062;47.294;12.182;2022-08-19T09:33:47;23.00;51.50
12006;DHT22;6062;47.294;12.182;2022-08-19T09:36:16;22.70;51.90
12006;DHT22;6062;47.294;12.182;2022-08-19T09:38:44;22.30;52.00
12006;DHT22;6062;47.294;12.182;2022-08-19T09:41:16;21.90;52.90
12006;DHT22;6062;47.294;12.182;2022-08-19T09:43:47;21.50;53.60
12006;DHT22;6062;47.294;12.182;2022-08-19T09:46:18;21.20;55.00
12006;DHT22;6062;47.294;12.182;2022-08-19T09:48:46;20.90;56.50
12006;DHT22;6062;47.294;12.182;2022-08-19T09:51:21;20.80;56.90
12006;DHT22;6062;47.294;12.182;2022-08-19T09:53:50;20.80;57.90
12006;DHT22;6062;47.294;12.182;2022-08-19T09:56:20;20.70;57.60
12006;DHT22;6062;47.294;12.182;2022-08-19T09:58:47;20.70;57.80
12006;DHT22;6062;47.294;12.182;2022-08-19T10:01:22;20.50;58.40
12006;DHT22;6062;47.294;12.182;2022-08-19T10:03:52;20.50;59.20
12006;DHT22;6062;47.294;12.182;2022-08-19T10:06:22;20.50;58.90
12006;DHT22;6062;47.294;12.182;2022-08-19T10:08:51;20.60;58.90
12006;DHT22;6062;47.294;12.182;2022-08-19T10:11:19;20.60;57.90
12006;DHT22;6062;47.294;12.182;2022-08-19T10:13:45;20.50;57.90
12006;DHT22;6062;47.294;12.182;2022-08-19T10:16:16;20.40;58.10
12006;DHT22;6062;47.294;12.182;2022-08-19T10:18:46;20.30;58.70
12006;DHT22;6062;47.294;12.182;2022-08-19T10:21:14;20.10;58.60
12006;DHT22;6062;47.294;12.182;2022-08-19T10:23:46;20.10;59.10
12006;DHT22;6062;47.294;12.182;2022-08-19T10:26:17;20.00;59.20
12006;DHT22;6062;47.294;12.182;2022-08-19T10:28:45;20.00;59.90
12006;DHT22;6062;47.294;12.182;2022-08-19T10:31:14;20.00;59.60
12006;DHT22;6062;47.294;12.182;2022-08-19T10:33:42;19.90;59.20
12006;DHT22;6062;47.294;12.182;2022-08-19T10:36:12;19.70;59.50
12006;DHT22;6062;47.294;12.182;2022-08-19T10:38:44;19.60;59.70
12006;DHT22;6062;47.294;12.182;2022-08-19T10:41:18;19.40;60.30
12006;DHT22;6062;47.294;12.182;2022-08-19T10:43:51;19.30;61.00
12006;DHT22;6062;47.294;12.182;2022-08-19T10:46:20;19.20;61.10
12006;DHT22;6062;47.294;12.182;2022-08-19T10:48:49;19.10;61.10
12006;DHT22;6062;47.294;12.182;2022-08-19T10:51:15;19.00;61.10
12006;DHT22;6062;47.294;12.182;2022-08-19T10:54:00;19.00;61.50
12006;DHT22;6062;47.294;12.182;2022-08-19T10:56:27;19.00;61.80
12006;DHT22;6062;47.294;12.182;2022-08-19T10:59:12;19.00;62.30
12006;DHT22;6062;47.294;12.182;2022-08-19T11:01:40;19.00;61.90
12006;DHT22;6062;47.294;12.182;2022-08-19T11:04:07;19.10;62.80
12006;DHT22;6062;47.294;12.182;2022-08-19T11:06:37;19.20;63.50
12006;DHT22;6062;47.294;12.182;2022-08-19T11:09:04;19.30;63.80
12006;DHT22;6062;47.294;12.182;2022-08-19T11:11:31;19.50;64.10
12006;DHT22;6062;47.294;12.182;2022-08-19T11:14:06;19.70;63.60
12006;DHT22;6062;47.294;12.182;2022-08-19T11:16:33;19.80;63.60
12006;DHT22;6062;47.294;12.182;2022-08-19T11:18:59;20.00;62.50
12006;DHT22;6062;47.294;12.182;2022-08-19T11:21:29;20.10;61.30
12006;DHT22;6062;47.294;12.182;2022-08-19T11:23:59;20.20;61.00
12006;DHT22;6062;47.294;12.182;2022-08-19T11:26:28;20.30;61.00
12006;DHT22;6062;47.294;12.182;2022-08-19T11:28:56;20.30;60.80
12006;DHT22;6062;47.294;12.182;2022-08-19T11:31:26;20.40;60.30
12006;DHT22;6062;47.294;12.182;2022-08-19T11:33:57;20.40;59.50
12006;DHT22;6062;47.294;12.182;2022-08-19T11:36:25;20.20;59.20
12006;DHT22;6062;47.294;12.182;2022-08-19T11:38:51;20.00;59.30
12006;DHT22;6062;47.294;12.182;2022-08-19T11:41:20;19.80;59.70
12006;DHT22;6062;47.294;12.182;2022-08-19T11:43:49;19.50;60.30
12006;DHT22;6062;47.294;12.182;2022-08-19T11:46:16;19.30;60.70
12006;DHT22;6062;47.294;12.182;2022-08-19T11:48:42;19.00;61.00
12006;DHT22;6062;47.294;12.182;2022-08-19T11:51:12;18.80;61.60
12006;DHT22;6062;47.294;12.182;2022-08-19T11:53:43;18.70;62.30
12006;DHT22;6062;47.294;12.182;2022-08-19T11:56:10;18.50;62.50
12006;DHT22;6062;47.294;12.182;2022-08-19T11:58:37;18.40;63.20
12006;DHT22;6062;47.294;12.182;2022-08-19T12:01:09;18.30;63.60
12006;DHT22;6062;47.294;12.182;2022-08-19T12:03:37;18.30;64.10
12006;DHT22;6062;47.294;12.182;2022-08-19T12:06:05;18.20;63.90
12006;DHT22;6062;47.294;12.182;2022-08-19T12:08:37;18.20;64.00
12006;DHT22;6062;47.294;12.182;2022-08-19T12:11:03;18.10;64.10
12006;DHT22;6062;47.294;12.182;2022-08-19T12:13:30;18.10;64.60
12006;DHT22;6062;47.294;12.182;2022-08-19T12:15:57;18.20;65.00
12006;DHT22;6062;47.294;12.182;2022-08-19T12:18:23;18.20;64.80
12006;DHT22;6062;47.294;12.182;2022-08-19T12:20:51;18.30;64.50
12006;DHT22;6062;47.294;12.182;2022-08-19T12:23:18;18.30;63.90
12006;DHT22;6062;47.294;12.182;2022-08-19T12:25:46;18.30;63.40
12006;DHT22;6062;47.294;12.182;2022-08-19T12:28:22;18.20;63.20
12006;DHT22;6062;47.294;12.182;2022-08-19T12:30:50;18.10;63.60
12006;DHT22;6062;47.294;12.182;2022-08-19T12:33:17;18.20;63.90
12006;DHT22;6062;47.294;12.182;2022-08-19T12:35:45;18.10;64.10
12006;DHT22;6062;47.294;12.182;2022-08-19T12:38:12;18.10;65.30
12006;DHT22;6062;47.294;12.182;2022-08-19T12:40:39;18.10;66.30
12006;DHT22;6062;47.294;12.182;2022-08-19T12:43:08;18.10;66.30
12006;DHT22;6062;47.294;12.182;2022-08-19T12:45:34;18.10;66.30
12006;DHT22;6062;47.294;12.182;2022-08-19T12:48:00;18.00;67.20
12006;DHT22;6062;47.294;12.182;2022-08-19T12:50:26;18.00;67.40
12006;DHT22;6062;47.294;12.182;2022-08-19T12:52:51;17.90;67.50
12006;DHT22;6062;47.294;12.182;2022-08-19T12:55:17;17.90;67.70
12006;DHT22;6062;47.294;12.182;2022-08-19T12:57:44;17.90;67.90
12006;DHT22;6062;47.294;12.182;2022-08-19T13:00:17;17.80;67.90
12006;DHT22;6062;47.294;12.182;2022-08-19T13:02:48;17.80;68.30
12006;DHT22;6062;47.294;12.182;2022-08-19T13:05:27;17.70;68.30
12006;DHT22;6062;47.294;12.182;2022-08-19T13:07:57;17.70;68.90
12006;DHT22;6062;47.294;12.182;2022-08-19T13:10:27;17.60;68.50
12006;DHT22;6062;47.294;12.182;2022-08-19T13:12:57;17.40;68.60
12006;DHT22;6062;47.294;12.182;2022-08-19T13:15:24;17.30;69.00
12006;DHT22;6062;47.294;12.182;2022-08-19T13:17:52;17.20;69.30
12006;DHT22;6062;47.294;12.182;2022-08-19T13:20:19;17.10;69.10
12006;DHT22;6062;47.294;12.182;2022-08-19T13:22:47;17.00;69.10
12006;DHT22;6062;47.294;12.182;2022-08-19T13:25:14;16.80;67.90
12006;DHT22;6062;47.294;12.182;2022-08-19T13:27:43;16.50;65.70
12006;DHT22;6062;47.294;12.182;2022-08-19T13:30:11;16.30;65.30
12006;DHT22;6062;47.294;12.182;2022-08-19T13:32:57;16.10;65.40
12006;DHT22;6062;47.294;12.182;2022-08-19T13:35:50;15.80;66.70
12006;DHT22;6062;47.294;12.182;2022-08-19T13:38:22;15.60;68.00
12006;DHT22;6062;47.294;12.182;2022-08-19T13:40:50;15.40;68.10
12006;DHT22;6062;47.294;12.182;2022-08-19T13:43:18;15.20;68.50
12006;DHT22;6062;47.294;12.182;2022-08-19T13:45:47;15.10;69.20
12006;DHT22;6062;47.294;12.182;2022-08-19T13:48:14;15.00;70.10
12006;DHT22;6062;47.294;12.182;2022-08-19T13:50:43;15.00;70.20
12006;DHT22;6062;47.294;12.182;2022-08-19T13:53:11;14.90;70.40
12006;DHT22;6062;47.294;12.182;2022-08-19T13:55:39;14.80;69.70
12006;DHT22;6062;47.294;12.182;2022-08-19T13:58:06;14.80;69.30
12006;DHT22;6062;47.294;12.182;2022-08-19T14:00:34;14.70;69.50
12006;DHT22;6062;47.294;12.182;2022-08-19T14:03:03;14.70;69.70
12006;DHT22;6062;47.294;12.182;2022-08-19T14:05:30;14.60;69.60
12006;DHT22;6062;47.294;12.182;2022-08-19T14:07:56;14.60;69.60
12006;DHT22;6062;47.294;12.182;2022-08-19T14:10:23;14.60;69.60
12006;DHT22;6062;47.294;12.182;2022-08-19T14:12:53;14.50;70.00
12006;DHT22;6062;47.294;12.182;2022-08-19T14:15:21;14.50;70.20
12006;DHT22;6062;47.294;12.182;2022-08-19T14:17:48;14.50;70.20
12006;DHT22;6062;47.294;12.182;2022-08-19T14:20:15;14.50;70.60
12006;DHT22;6062;47.294;12.182;2022-08-19T14:22:41;14.50;70.60
12006;DHT22;6062;47.294;12.182;2022-08-19T14:25:11;14.60;70.50
12006;DHT22;6062;47.294;12.182;2022-08-19T14:27:41;14.60;70.20
12006;DHT22;6062;47.294;12.182;2022-08-19T14:30:10;14.60;69.70
12006;DHT22;6062;47.294;12.182;2022-08-19T14:32:39;14.60;69.20
12006;DHT22;6062;47.294;12.182;2022-08-19T14:35:06;14.60;69.60
12006;DHT22;6062;47.294;12.182;2022-08-19T14:37:33;14.70;69.50
12006;DHT22;6062;47.294;12.182;2022-08-19T14:39:59;14.70;69.20
12006;DHT22;6062;47.294;12.182;2022-08-19T14:42:25;14.70;68.40
12006;DHT22;6062;47.294;12.182;2022-08-19T14:44:51;14.80;67.40
12006;DHT22;6062;47.294;12.182;2022-08-19T14:47:16;14.70;66.90
12006;DHT22;6062;47.294;12.182;2022-08-19T14:49:42;14.70;66.60
12006;DHT22;6062;47.294;12.182;2022-08-19T14:52:09;14.70;66.70
12006;DHT22;6062;47.294;12.182;2022-08-19T14:54:34;14.80;66.80
12006;DHT22;6062;47.294;12.182;2022-08-19T14:57:00;14.70;66.70
12006;DHT22;6062;47.294;12.182;2022-08-19T14:59:26;14.70;66.60
12006;DHT22;6062;47.294;12.182;2022-08-19T15:01:51;14.70;67.20
12006;DHT22;6062;47.294;12.182;2022-08-19T15:04:17;14.70;67.30
12006;DHT22;6062;47.294;12.182;2022-08-19T15:06:43;14.70;67.80
12006;DHT22;6062;47.294;12.182;2022-08-19T15:09:09;14.70;68.10
12006;DHT22;6062;47.294;12.182;2022-08-19T15:11:36;14.70;68.40
12006;DHT22;6062;47.294;12.182;2022-08-19T15:14:04;14.70;68.70
12006;DHT22;6062;47.294;12.182;2022-08-19T15:16:30;14.70;68.40
12006;DHT22;6062;47.294;12.182;2022-08-19T15:18:58;14.70;68.30
12006;DHT22;6062;47.294;12.182;2022-08-19T15:21:25;14.70;68.10
12006;DHT22;6062;47.294;12.182;2022-08-19T15:23:53;14.70;67.80
12006;DHT22;6062;47.294;12.182;2022-08-19T15:26:21;14.60;67.80
12006;DHT22;6062;47.294;12.182;2022-08-19T15:28:47;14.50;68.00
12006;DHT22;6062;47.294;12.182;2022-08-19T15:31:17;14.50;68.00
12006;DHT22;6062;47.294;12.182;2022-08-19T15:33:44;14.50;68.00
12006;DHT22;6062;47.294;12.182;2022-08-19T15:36:10;14.50;68.20
12006;DHT22;6062;47.294;12.182;2022-08-19T15:38:37;14.50;68.00
12006;DHT22;6062;47.294;12.182;2022-08-19T15:41:05;14.50;68.10
12006;DHT22;6062;47.294;12.182;2022-08-19T15:43:51;14.50;68.30
12006;DHT22;6062;47.294;12.182;2022-08-19T15:46:27;14.50;68.30
12006;DHT22;6062;47.294;12.182;2022-08-19T15:48:57;14.50;68.30
12006;DHT22;6062;47.294;12.182;2022-08-19T15:51:24;14.60;68.40
12006;DHT22;6062;47.294;12.182;2022-08-19T15:53:52;14.50;68.30
12006;DHT22;6062;47.294;12.182;2022-08-19T15:56:19;14.50;68.30
12006;DHT22;6062;47.294;12.182;2022-08-19T15:58:45;14.50;68.50
12006;DHT22;6062;47.294;12.182;2022-08-19T16:01:29;14.50;68.60
12006;DHT22;6062;47.294;12.182;2022-08-19T16:04:14;14.60;68.50
12006;DHT22;6062;47.294;12.182;2022-08-19T16:07:00;14.60;68.50